createdAt,value
2019-06-27T00:00:47.506Z,3.27
2019-06-27T00:03:15.855Z,3.37
2019-06-27T00:05:44.243Z,3.83
2019-06-27T00:08:12.680Z,3.70
2019-06-27T00:10:41.055Z,3.70
2019-06-27T00:13:09.490Z,4.23
2019-06-27T00:15:37.927Z,3.83
2019-06-27T00:18:06.387Z,4.00
2019-06-27T00:20:34.827Z,3.77
2019-06-27T00:23:03.306Z,4.00
2019-06-27T00:25:31.666Z,3.67
2019-06-27T00:28:00.041Z,4.90
2019-06-27T00:30:28.405Z,4.30
2019-06-27T00:32:56.838Z,4.23
2019-06-27T00:35:25.263Z,5.57
2019-06-27T00:37:53.635Z,4.70
2019-06-27T00:40:22.068Z,4.30
2019-06-27T00:42:50.498Z,4.60
2019-06-27T00:45:18.848Z,4.60
2019-06-27T00:47:47.297Z,5.50
2019-06-27T00:50:17.142Z,5.03
2019-06-27T00:52:45.586Z,5.57
2019-06-27T00:55:14.103Z,4.63
2019-06-27T00:57:42.483Z,4.93
2019-06-27T01:00:11.019Z,5.13
2019-06-27T01:02:39.387Z,4.70
2019-06-27T01:05:08.135Z,5.07
2019-06-27T01:07:36.559Z,5.30
2019-06-27T01:10:05.436Z,5.27
2019-06-27T01:12:33.886Z,4.63
2019-06-27T01:15:02.428Z,4.90
2019-06-27T01:17:30.883Z,4.97
2019-06-27T01:19:59.366Z,5.67
2019-06-27T01:22:27.793Z,6.27
2019-06-27T01:24:56.260Z,5.73
2019-06-27T01:27:29.897Z,6.23
2019-06-27T01:29:54.800Z,5.13
2019-06-27T01:32:23.239Z,5.60
2019-06-27T01:34:51.685Z,5.00
2019-06-27T01:37:20.109Z,5.33
2019-06-27T01:39:48.540Z,5.30
2019-06-27T01:42:16.991Z,5.00
2019-06-27T01:44:51.371Z,5.10
2019-06-27T01:47:19.770Z,5.70
2019-06-27T01:49:48.141Z,5.37
2019-06-27T01:52:16.595Z,6.27
2019-06-27T01:54:44.977Z,6.20
2019-06-27T01:57:13.407Z,5.63
2019-06-27T01:59:41.780Z,5.73
2019-06-27T02:02:10.295Z,5.63
2019-06-27T02:04:38.699Z,4.93
2019-06-27T02:07:07.144Z,5.70
2019-06-27T02:09:35.729Z,5.73
2019-06-27T02:12:04.229Z,5.33
2019-06-27T02:14:32.592Z,5.77
2019-06-27T02:17:01.083Z,5.60
2019-06-27T02:19:29.519Z,5.50
2019-06-27T02:21:57.943Z,5.43
2019-06-27T02:24:26.408Z,5.30
2019-06-27T02:26:54.830Z,4.93
2019-06-27T02:29:23.263Z,5.33
2019-06-27T02:31:51.745Z,5.60
2019-06-27T02:34:20.197Z,5.53
2019-06-27T02:36:48.633Z,4.80
2019-06-27T02:39:17.107Z,4.90
2019-06-27T02:41:45.553Z,5.83
2019-06-27T02:44:13.997Z,5.80
2019-06-27T02:46:42.523Z,5.63
2019-06-27T02:49:10.964Z,5.50
2019-06-27T02:51:39.415Z,6.43
2019-06-27T02:54:07.877Z,5.70
2019-06-27T02:56:36.317Z,6.30
2019-06-27T02:59:04.691Z,5.30
2019-06-27T03:01:33.139Z,5.40
2019-06-27T03:04:01.588Z,6.13
2019-06-27T03:06:29.967Z,5.23
2019-06-27T03:08:58.401Z,6.10
2019-06-27T03:11:26.876Z,5.33
2019-06-27T03:13:55.267Z,5.37
2019-06-27T03:16:23.709Z,5.50
2019-06-27T03:18:52.200Z,4.97
2019-06-27T03:21:20.548Z,4.77
2019-06-27T03:23:49.024Z,6.10
2019-06-27T03:26:17.388Z,5.70
2019-06-27T03:28:53.242Z,6.40
2019-06-27T03:31:15.861Z,5.17
2019-06-27T03:33:44.224Z,5.20
2019-06-27T03:36:12.664Z,6.20
2019-06-27T03:38:41.096Z,5.93
2019-06-27T03:41:09.823Z,5.00
2019-06-27T03:43:38.272Z,5.20
2019-06-27T03:46:06.708Z,5.03
2019-06-27T03:48:35.144Z,5.00
2019-06-27T03:51:03.598Z,5.03
2019-06-27T03:53:31.943Z,4.87
2019-06-27T03:56:00.316Z,5.07
2019-06-27T03:58:28.660Z,4.70
2019-06-27T04:00:57.090Z,5.00
2019-06-27T04:03:25.524Z,4.73
2019-06-27T04:05:53.977Z,4.90
2019-06-27T04:08:22.447Z,3.90
2019-06-27T04:10:50.887Z,4.67
2019-06-27T04:13:19.374Z,4.60
2019-06-27T04:15:47.732Z,4.50
2019-06-27T04:18:16.102Z,4.20
2019-06-27T04:20:44.546Z,5.47
2019-06-27T04:23:12.971Z,4.30
2019-06-27T04:25:41.355Z,4.73
2019-06-27T04:28:09.962Z,4.23
2019-06-27T04:30:38.394Z,4.57
2019-06-27T04:33:06.848Z,3.83
2019-06-27T04:35:35.291Z,4.13
2019-06-27T04:38:03.777Z,4.73
2019-06-27T04:40:32.281Z,4.23
2019-06-27T04:43:05.078Z,4.30
2019-06-27T04:45:30.775Z,4.13
2019-06-27T04:47:59.230Z,4.33
2019-06-27T04:50:27.586Z,5.00
2019-06-27T04:52:56.022Z,4.80
2019-06-27T04:55:24.495Z,4.77
2019-06-27T04:57:52.909Z,4.10
2019-06-27T05:00:24.530Z,4.20
2019-06-27T05:02:52.910Z,4.23
2019-06-27T05:05:21.439Z,3.73
2019-06-27T05:07:49.799Z,4.40
2019-06-27T05:10:18.167Z,4.43
2019-06-27T05:12:46.609Z,4.20
2019-06-27T05:15:15.027Z,4.30
2019-06-27T05:17:43.488Z,3.83
2019-06-27T05:20:12.020Z,4.73
2019-06-27T05:22:40.391Z,4.33
2019-06-27T05:25:08.758Z,3.87
2019-06-27T05:27:37.121Z,4.27
2019-06-27T05:30:09.862Z,3.30
2019-06-27T05:32:35.784Z,3.80
2019-06-27T05:35:04.547Z,4.07
2019-06-27T05:37:32.907Z,4.03
2019-06-27T05:40:01.368Z,4.80
2019-06-27T05:42:29.788Z,5.00
2019-06-27T05:44:58.140Z,5.20
2019-06-27T05:47:26.507Z,5.30
2019-06-27T05:49:54.891Z,4.53
2019-06-27T05:52:23.359Z,4.80
2019-06-27T05:54:51.811Z,6.03
2019-06-27T05:57:20.251Z,4.80
2019-06-27T05:59:48.612Z,5.30
2019-06-27T06:02:17.143Z,4.90
2019-06-27T06:04:45.502Z,4.70
2019-06-27T06:07:13.843Z,5.20
2019-06-27T06:09:42.296Z,5.70
2019-06-27T06:12:10.669Z,5.50
2019-06-27T06:14:39.040Z,5.33
2019-06-27T06:17:10.665Z,5.63
2019-06-27T06:19:39.041Z,4.90
2019-06-27T06:22:07.412Z,4.93
2019-06-27T06:24:35.807Z,5.20
2019-06-27T06:27:04.249Z,4.40
2019-06-27T06:29:32.679Z,5.17
2019-06-27T06:32:01.124Z,5.50
2019-06-27T06:34:29.555Z,5.33
2019-06-27T06:36:58.057Z,5.27
2019-06-27T06:39:26.446Z,5.30
2019-06-27T06:41:54.810Z,5.10
2019-06-27T06:44:23.261Z,5.70
2019-06-27T06:46:52.739Z,4.73
2019-06-27T06:49:21.200Z,5.60
2019-06-27T06:51:49.566Z,6.07
2019-06-27T06:54:18.020Z,4.67
2019-06-27T06:56:46.467Z,5.50
2019-06-27T06:59:14.961Z,6.67
2019-06-27T07:01:45.618Z,6.00
2019-06-27T07:04:13.546Z,6.20
2019-06-27T07:06:41.986Z,6.63
2019-06-27T07:09:10.365Z,5.63
2019-06-27T07:11:38.768Z,6.07
2019-06-27T07:14:07.180Z,6.20
2019-06-27T07:16:35.571Z,6.00
2019-06-27T07:19:04.059Z,6.03
2019-06-27T07:21:32.476Z,6.00
2019-06-27T07:24:00.874Z,6.10
2019-06-27T07:26:29.250Z,5.93
2019-06-27T07:28:57.727Z,6.03
2019-06-27T07:31:26.201Z,6.30
2019-06-27T07:33:54.695Z,5.50
2019-06-27T07:36:23.193Z,6.67
2019-06-27T07:38:51.661Z,6.00
2019-06-27T07:41:20.114Z,5.63
2019-06-27T07:43:48.543Z,5.60
2019-06-27T07:46:25.223Z,6.23
2019-06-27T07:48:47.136Z,5.73
2019-06-27T07:51:15.530Z,5.47
2019-06-27T07:53:43.987Z,4.87
2019-06-27T07:56:12.378Z,4.10
2019-06-27T07:58:40.840Z,4.20
2019-06-27T08:01:09.297Z,4.63
2019-06-27T08:03:37.753Z,5.20
2019-06-27T08:06:06.207Z,4.80
2019-06-27T08:08:34.666Z,4.67
2019-06-27T08:11:03.123Z,4.33
2019-06-27T08:13:31.519Z,4.90
2019-06-27T08:15:59.923Z,4.73
2019-06-27T08:18:28.556Z,4.63
2019-06-27T08:20:56.987Z,5.57
2019-06-27T08:23:40.613Z,5.37
2019-06-27T08:25:55.531Z,4.97
2019-06-27T08:28:23.907Z,5.00
2019-06-27T08:30:52.316Z,5.30
2019-06-27T08:33:20.763Z,5.53
2019-06-27T08:35:49.246Z,5.23
2019-06-27T08:38:17.707Z,5.57
2019-06-27T08:40:46.164Z,4.60
2019-06-27T08:43:14.717Z,5.10
2019-06-27T08:45:43.187Z,5.30
2019-06-27T08:48:11.724Z,4.57
2019-06-27T08:50:41.100Z,6.57
2019-06-27T08:53:09.646Z,6.43
2019-06-27T08:55:38.171Z,6.17
2019-06-27T08:58:06.736Z,5.30
2019-06-27T09:00:35.122Z,5.50
2019-06-27T09:03:03.587Z,5.47
2019-06-27T09:05:32.054Z,5.87
2019-06-27T09:08:00.492Z,5.77
2019-06-27T09:10:29.004Z,5.77
2019-06-27T09:12:57.476Z,5.03
2019-06-27T09:15:25.990Z,5.17
2019-06-27T09:17:54.592Z,5.00
2019-06-27T09:20:23.072Z,6.23
2019-06-27T09:22:51.445Z,4.30
2019-06-27T09:25:20.328Z,4.30
2019-06-27T09:27:49.087Z,4.07
2019-06-27T09:30:17.670Z,4.70
2019-06-27T09:32:46.163Z,3.90
2019-06-27T09:35:14.709Z,4.37
2019-06-27T09:37:43.163Z,5.10
2019-06-27T09:40:11.807Z,4.77
2019-06-27T09:42:40.283Z,4.57
2019-06-27T09:45:08.781Z,4.60
2019-06-27T09:47:37.267Z,4.30
2019-06-27T09:50:06.432Z,4.60
2019-06-27T09:52:34.893Z,5.40
2019-06-27T09:55:03.415Z,3.67
2019-06-27T09:57:31.835Z,3.73
2019-06-27T10:00:00.298Z,4.30
2019-06-27T10:02:41.117Z,4.40
2019-06-27T10:04:59.036Z,3.43
2019-06-27T10:07:27.423Z,3.23
2019-06-27T10:09:55.834Z,4.67
2019-06-27T10:12:24.321Z,4.23
2019-06-27T10:14:52.700Z,4.20
2019-06-27T10:17:21.143Z,4.43
2019-06-27T10:19:49.652Z,3.53
2019-06-27T10:22:18.062Z,3.50
2019-06-27T10:24:46.568Z,3.50
2019-06-27T10:27:15.001Z,3.97
2019-06-27T10:29:43.431Z,3.57
2019-06-27T10:32:11.870Z,3.93
2019-06-27T10:34:40.346Z,3.90
2019-06-27T10:37:08.836Z,3.60
2019-06-27T10:39:37.812Z,3.57
2019-06-27T10:42:09.030Z,3.13
2019-06-27T10:44:37.417Z,3.90
2019-06-27T10:47:06.698Z,4.63
2019-06-27T10:49:35.949Z,3.90
2019-06-27T10:52:04.459Z,4.13
2019-06-27T10:54:32.929Z,3.57
2019-06-27T10:57:01.384Z,3.83
2019-06-27T10:59:29.756Z,4.40
2019-06-27T11:01:58.211Z,3.60
2019-06-27T11:04:26.704Z,3.50
2019-06-27T11:06:55.174Z,3.83
2019-06-27T11:09:23.644Z,3.80
2019-06-27T11:11:52.203Z,3.93
2019-06-27T11:14:20.581Z,4.30
2019-06-27T11:16:49.051Z,4.03
2019-06-27T11:19:17.509Z,4.20
2019-06-27T11:21:45.956Z,3.60
2019-06-27T11:24:14.444Z,4.87
2019-06-27T11:26:42.843Z,4.77
2019-06-27T11:29:11.373Z,4.57
2019-06-27T11:31:39.824Z,5.10
2019-06-27T11:34:08.287Z,5.20
2019-06-27T11:36:36.833Z,4.43
2019-06-27T11:39:05.983Z,5.23
2019-06-27T11:41:34.452Z,5.60
2019-06-27T11:44:02.996Z,5.53
2019-06-27T11:46:31.459Z,4.73
2019-06-27T11:48:59.909Z,4.60
2019-06-27T11:51:28.525Z,4.90
2019-06-27T11:53:57.072Z,4.90
2019-06-27T11:56:26.975Z,3.97
2019-06-27T11:58:55.420Z,4.90
2019-06-27T12:01:23.855Z,4.17
2019-06-27T12:03:52.280Z,3.97
2019-06-27T12:06:20.776Z,3.30
2019-06-27T12:08:49.207Z,3.53
2019-06-27T12:11:17.643Z,3.87
2019-06-27T12:13:46.040Z,3.90
2019-06-27T12:16:14.428Z,3.70
2019-06-27T12:18:42.859Z,4.50
2019-06-27T12:21:11.308Z,4.23
2019-06-27T12:23:39.765Z,3.60
2019-06-27T12:26:08.310Z,3.60
2019-06-27T12:28:36.943Z,3.40
2019-06-27T12:31:19.294Z,3.67
2019-06-27T12:33:35.492Z,4.27
2019-06-27T12:36:04.336Z,4.07
2019-06-27T12:38:32.778Z,4.47
2019-06-27T12:41:01.235Z,3.70
2019-06-27T12:43:29.778Z,4.33
2019-06-27T12:45:58.158Z,4.73
2019-06-27T12:48:27.478Z,4.63
2019-06-27T12:50:55.939Z,4.43
2019-06-27T12:53:24.359Z,4.00
2019-06-27T12:55:53.017Z,4.20
2019-06-27T12:58:21.475Z,3.57
2019-06-27T13:00:50.731Z,4.07
2019-06-27T13:03:20.147Z,3.93
2019-06-27T13:05:48.643Z,4.27
2019-06-27T13:08:18.028Z,3.27
2019-06-27T13:10:46.471Z,3.77
2019-06-27T13:13:14.856Z,4.20
2019-06-27T13:15:43.287Z,3.70
2019-06-27T13:18:11.662Z,3.83
2019-06-27T13:20:56.545Z,4.33
2019-06-27T13:23:10.243Z,3.97
2019-06-27T13:25:38.619Z,3.83
2019-06-27T13:28:07.098Z,3.57
2019-06-27T13:30:35.717Z,3.80
2019-06-27T13:33:04.177Z,3.63
2019-06-27T13:35:32.708Z,3.30
2019-06-27T13:38:01.139Z,3.20
2019-06-27T13:40:29.499Z,3.93
2019-06-27T13:42:57.909Z,3.30
2019-06-27T13:45:26.827Z,3.70
2019-06-27T13:47:55.272Z,3.67
2019-06-27T13:50:23.883Z,3.90
2019-06-27T13:52:54.647Z,4.37
2019-06-27T13:55:24.120Z,2.93
2019-06-27T13:57:52.723Z,3.80
2019-06-27T14:00:25.960Z,3.70
2019-06-27T14:02:54.454Z,3.00
2019-06-27T14:05:22.992Z,3.67
2019-06-27T14:07:51.420Z,3.77
2019-06-27T14:10:19.877Z,4.03
2019-06-27T14:12:48.390Z,3.33
2019-06-27T14:15:16.920Z,3.50
2019-06-27T14:17:47.892Z,3.40
2019-06-27T14:20:16.464Z,3.97
2019-06-27T14:22:45.128Z,3.83
2019-06-27T14:25:13.753Z,3.33
2019-06-27T14:27:42.229Z,4.53
2019-06-27T14:30:12.137Z,4.07
2019-06-27T14:32:41.003Z,3.63
2019-06-27T14:35:15.869Z,4.30
2019-06-27T14:37:39.818Z,4.17
2019-06-27T14:40:10.474Z,4.40
2019-06-27T14:42:38.972Z,3.97
2019-06-27T14:45:07.622Z,3.97
2019-06-27T14:47:36.071Z,3.40
2019-06-27T14:50:04.781Z,3.83
2019-06-27T14:52:34.952Z,3.37
2019-06-27T14:55:03.839Z,3.70
2019-06-27T14:57:32.241Z,3.87
2019-06-27T15:00:00.656Z,3.07
2019-06-27T15:02:29.071Z,3.97
2019-06-27T15:04:58.724Z,4.47
2019-06-27T15:07:27.193Z,3.53
2019-06-27T15:09:55.644Z,4.10
2019-06-27T15:12:24.359Z,4.13
2019-06-27T15:14:52.932Z,3.80
2019-06-27T15:17:21.389Z,3.70
2019-06-27T15:19:49.859Z,4.03
2019-06-27T15:22:19.750Z,3.70
2019-06-27T15:24:48.267Z,4.20
2019-06-27T15:27:16.789Z,3.67
2019-06-27T15:29:45.605Z,3.73
2019-06-27T15:32:14.056Z,4.20
2019-06-27T15:34:48.970Z,4.43
2019-06-27T15:37:17.375Z,4.27
2019-06-27T15:39:45.824Z,3.70
2019-06-27T15:42:14.504Z,3.80
2019-06-27T15:44:43.090Z,3.97
2019-06-27T15:47:11.612Z,3.67
2019-06-27T15:49:40.150Z,3.60
2019-06-27T15:52:08.669Z,3.30
2019-06-27T15:54:37.120Z,3.83
2019-06-27T15:57:05.571Z,3.37
2019-06-27T15:59:34.030Z,2.97
2019-06-27T16:02:02.724Z,2.90
2019-06-27T16:04:34.379Z,3.40
2019-06-27T16:07:01.224Z,3.20
2019-06-27T16:09:29.795Z,3.50
2019-06-27T16:11:58.364Z,3.17
2019-06-27T16:14:30.653Z,3.33
2019-06-27T16:16:58.894Z,3.70
2019-06-27T16:19:27.279Z,4.03
2019-06-27T16:21:55.811Z,3.40
2019-06-27T16:24:24.320Z,3.40
2019-06-27T16:26:52.766Z,4.40
2019-06-27T16:29:21.156Z,3.53
2019-06-27T16:31:49.599Z,3.50
2019-06-27T16:34:18.070Z,3.10
2019-06-27T16:36:46.578Z,2.87
2019-06-27T16:39:14.969Z,3.30
2019-06-27T16:41:59.783Z,2.70
2019-06-27T16:44:28.163Z,3.50
2019-06-27T16:46:56.647Z,2.80
2019-06-27T16:49:30.966Z,2.40
2019-06-27T16:51:59.458Z,2.67
2019-06-27T16:54:29.092Z,2.30
2019-06-27T16:56:57.518Z,2.40
2019-06-27T16:59:25.927Z,2.70
2019-06-27T17:01:54.347Z,2.27
2019-06-27T17:04:22.732Z,2.53
2019-06-27T17:06:51.214Z,2.87
2019-06-27T17:09:19.665Z,2.37
2019-06-27T17:11:53.174Z,2.43
2019-06-27T17:14:21.719Z,2.47
2019-06-27T17:16:50.173Z,2.17
2019-06-27T17:19:18.527Z,2.40
2019-06-27T17:21:46.955Z,2.50
2019-06-27T17:24:15.442Z,2.40
2019-06-27T17:26:43.934Z,2.23
2019-06-27T17:29:12.391Z,1.97
2019-06-27T17:31:40.766Z,2.20
2019-06-27T17:34:09.558Z,2.17
2019-06-27T17:36:38.010Z,2.30
2019-06-27T17:39:06.450Z,2.30
2019-06-27T17:41:35.189Z,2.50
2019-06-27T17:44:03.605Z,2.73
2019-06-27T17:46:32.237Z,2.57
2019-06-27T17:49:00.597Z,2.53
2019-06-27T17:51:28.988Z,2.30
2019-06-27T17:53:57.358Z,2.87
2019-06-27T17:56:25.800Z,2.47
2019-06-27T17:58:54.279Z,2.30
2019-06-27T18:01:24.723Z,2.00
2019-06-27T18:03:53.119Z,2.50
2019-06-27T18:06:22.686Z,2.47
2019-06-27T18:08:52.095Z,2.53
2019-06-27T18:11:20.480Z,2.20
2019-06-27T18:13:48.939Z,2.53
2019-06-27T18:16:17.327Z,2.87
2019-06-27T18:18:51.499Z,2.60
2019-06-27T18:21:20.012Z,2.90
2019-06-27T18:23:48.571Z,3.33
2019-06-27T18:26:17.056Z,3.00
2019-06-27T18:28:45.566Z,3.23
2019-06-27T18:31:13.937Z,2.73
2019-06-27T18:33:42.447Z,2.90
2019-06-27T18:36:10.803Z,2.73
2019-06-27T18:38:39.244Z,3.63
2019-06-27T18:41:12.699Z,3.20
2019-06-27T18:43:43.111Z,3.57
2019-06-27T18:46:12.710Z,3.10
2019-06-27T18:48:41.430Z,3.00
2019-06-27T18:51:09.881Z,2.60
2019-06-27T18:53:40.020Z,3.30
2019-06-27T18:56:09.811Z,3.00
2019-06-27T18:58:38.312Z,3.03
2019-06-27T19:01:06.948Z,2.90
2019-06-27T19:03:35.391Z,2.80
2019-06-27T19:06:04.236Z,2.90
2019-06-27T19:08:32.922Z,2.90
2019-06-27T19:11:01.423Z,2.43
2019-06-27T19:13:30.029Z,2.50
2019-06-27T19:16:00.468Z,2.33
2019-06-27T19:18:53.657Z,2.47
2019-06-27T19:21:32.859Z,2.40
2019-06-27T19:24:08.699Z,2.27
2019-06-27T19:26:37.279Z,2.63
2019-06-27T19:29:05.870Z,2.93
2019-06-27T19:31:34.396Z,2.53
2019-06-27T19:34:03.130Z,2.90
2019-06-27T19:36:31.555Z,2.30
2019-06-27T19:38:59.915Z,2.20
2019-06-27T19:41:28.559Z,2.50
2019-06-27T19:44:00.307Z,1.93
2019-06-27T19:46:29.888Z,2.20
2019-06-27T19:49:15.927Z,2.47
2019-06-27T19:51:44.492Z,2.83
2019-06-27T19:54:13.030Z,1.93
2019-06-27T19:56:44.152Z,2.20
2019-06-27T19:59:15.206Z,2.80
2019-06-27T20:01:43.657Z,2.60
2019-06-27T20:04:12.152Z,2.30
2019-06-27T20:06:40.593Z,2.30
2019-06-27T20:09:09.142Z,2.90
2019-06-27T20:11:37.674Z,3.07
2019-06-27T20:14:06.379Z,2.30
2019-06-27T20:16:35.051Z,2.63
2019-06-27T20:19:05.818Z,2.50
2019-06-27T20:21:33.786Z,2.73
2019-06-27T20:24:02.326Z,2.60
2019-06-27T20:26:31.296Z,2.60
2019-06-27T20:28:59.972Z,3.43
2019-06-27T20:31:28.455Z,3.10
2019-06-27T20:33:57.939Z,2.73
2019-06-27T20:36:26.697Z,3.13
2019-06-27T20:38:58.198Z,2.67
2019-06-27T20:41:29.309Z,2.30
2019-06-27T20:44:06.832Z,3.43
2019-06-27T20:46:35.834Z,2.93
2019-06-27T20:49:04.452Z,2.70
2019-06-27T20:51:32.958Z,3.00
2019-06-27T20:54:01.360Z,2.73
2019-06-27T20:56:30.861Z,3.30
2019-06-27T20:58:59.272Z,3.57
2019-06-27T21:01:30.521Z,3.93
2019-06-27T21:03:57.832Z,3.73
2019-06-27T21:06:26.352Z,3.80
2019-06-27T21:08:54.799Z,4.57
2019-06-27T21:11:23.558Z,4.93
2019-06-27T21:13:51.971Z,5.67
2019-06-27T21:16:21.023Z,5.63
2019-06-27T21:18:49.473Z,5.40
2019-06-27T21:21:21.734Z,5.33
2019-06-27T21:23:50.291Z,5.47
2019-06-27T21:26:18.772Z,5.90
2019-06-27T21:28:47.378Z,6.40
2019-06-27T21:31:15.840Z,5.43
2019-06-27T21:33:44.298Z,5.70
2019-06-27T21:36:12.870Z,6.33
2019-06-27T21:38:41.640Z,5.87
2019-06-27T21:41:12.978Z,6.47
2019-06-27T21:43:41.447Z,6.80
2019-06-27T21:46:10.573Z,6.13
2019-06-27T21:48:39.030Z,6.70
2019-06-27T21:51:09.977Z,6.80
2019-06-27T21:53:38.457Z,6.23
2019-06-27T21:56:07.231Z,6.50
2019-06-27T21:58:35.628Z,6.93
2019-06-27T22:01:04.863Z,6.20
2019-06-27T22:03:33.494Z,6.43
2019-06-27T22:06:01.977Z,6.53
2019-06-27T22:08:30.383Z,6.60
2019-06-27T22:10:58.888Z,6.83
2019-06-27T22:13:27.369Z,6.40
2019-06-27T22:15:55.806Z,6.13
2019-06-27T22:18:24.352Z,6.73
2019-06-27T22:20:52.806Z,6.63
2019-06-27T22:23:21.181Z,6.23
2019-06-27T22:25:49.611Z,7.00
2019-06-27T22:28:18.063Z,6.00
2019-06-27T22:30:46.423Z,6.00
2019-06-27T22:33:14.863Z,6.07
2019-06-27T22:35:43.317Z,5.97
2019-06-27T22:38:29.494Z,6.17
2019-06-27T22:41:16.001Z,6.83
2019-06-27T22:44:02.515Z,5.97
2019-06-27T22:46:48.970Z,6.33
2019-06-27T22:49:16.670Z,6.40
2019-06-27T22:52:07.303Z,5.60
2019-06-27T22:54:37.212Z,5.83
2019-06-27T22:57:05.679Z,5.87
2019-06-27T22:59:34.065Z,6.30
2019-06-27T23:02:02.675Z,5.33
2019-06-27T23:04:31.135Z,6.17
2019-06-27T23:06:59.595Z,5.50
2019-06-27T23:09:28.068Z,5.67
2019-06-27T23:11:56.484Z,5.33
2019-06-27T23:14:24.972Z,5.57
2019-06-27T23:16:53.396Z,5.57
2019-06-27T23:19:21.815Z,5.30
2019-06-27T23:21:50.218Z,6.33
2019-06-27T23:24:18.676Z,5.60
2019-06-27T23:26:47.043Z,5.80
2019-06-27T23:29:15.531Z,5.73
2019-06-27T23:31:43.917Z,6.10
2019-06-27T23:34:12.280Z,6.07
2019-06-27T23:36:40.631Z,5.40
2019-06-27T23:39:09.096Z,5.43
2019-06-27T23:41:37.486Z,4.60
2019-06-27T23:44:05.930Z,6.30
2019-06-27T23:46:43.376Z,5.50
2019-06-27T23:49:11.923Z,6.33
2019-06-27T23:51:40.558Z,5.50
2019-06-27T23:54:09.002Z,5.17
2019-06-27T23:56:37.499Z,6.20
2019-06-27T23:59:06.006Z,5.77
